Time;durP1;ratioP1;P1;durP2;ratioP2;P2;SDS_P1;SDS_P2;PMS_P1;PMS_P2;Temp;Humidity;BMP_temperature;BMP_pressure;BME280_temperature;BME280_humidity;BME280_pressure;Samples;Min_cycle;Max_cycle;Signal;HPM_P1;HPM_P2
2021/06/05 00:00:47;;;;;;;4.40;1.40;;;;;;;19.37;74.31;96686.97;4988654;28;20484;-95
2021/06/05 00:03:15;;;;;;;1.67;1.20;;;;;;;19.43;74.46;96687.38;4986847;28;20529;-95
2021/06/05 00:05:43;;;;;;;1.90;1.70;;;;;;;19.31;74.60;96677.66;4985385;28;20454;-95
2021/06/05 00:08:11;;;;;;;2.47;1.97;;;;;;;19.29;74.83;96677.56;4990673;28;20454;-93
2021/06/05 00:10:42;;;;;;;2.30;1.07;;;;;;;19.28;75.01;96679.56;5000872;28;20441;-93
2021/06/05 00:13:13;;;;;;;1.70;1.20;;;;;;;19.21;75.77;96675.75;5000911;28;20442;-92
2021/06/05 00:15:43;;;;;;;3.23;1.47;;;;;;;19.12;75.99;96676.56;5000493;28;20450;-93
2021/06/05 00:18:10;;;;;;;1.50;1.40;;;;;;;19.11;76.57;96674.41;4989834;28;20518;-94
2021/06/05 00:20:38;;;;;;;1.73;1.63;;;;;;;19.07;76.52;96660.50;4990741;28;20530;-95
2021/06/05 00:23:08;;;;;;;1.63;1.30;;;;;;;19.17;75.84;96656.34;4991159;28;20473;-95
2021/06/05 00:25:34;;;;;;;2.30;1.50;;;;;;;19.07;75.76;96647.53;4984885;28;20525;-94
2021/06/05 00:28:01;;;;;;;1.53;1.27;;;;;;;18.97;76.59;96649.63;4983867;28;20457;-95
2021/06/05 00:30:28;;;;;;;1.40;1.27;;;;;;;18.97;76.89;96646.91;4985534;28;20442;-94
2021/06/05 00:32:56;;;;;;;3.47;1.50;;;;;;;19.00;76.92;96651.19;4985196;28;20514;-94
2021/06/05 00:35:24;;;;;;;1.43;1.27;;;;;;;19.06;76.89;96648.81;4987092;28;20553;-95
2021/06/05 00:37:50;;;;;;;3.97;1.70;;;;;;;19.04;77.33;96658.94;4985388;28;20584;-94
2021/06/05 00:40:20;;;;;;;2.40;1.53;;;;;;;18.98;77.80;96656.50;4984541;28;20957;-94
2021/06/05 00:42:46;;;;;;;2.07;1.70;;;;;;;19.02;79.13;96656.78;4982677;28;20465;-94
2021/06/05 00:45:14;;;;;;;2.43;1.50;;;;;;;18.91;79.26;96660.19;4981530;28;20503;-93
2021/06/05 00:47:40;;;;;;;2.20;1.50;;;;;;;18.81;80.55;96658.84;4982831;28;20501;-94
2021/06/05 00:50:11;;;;;;;5.40;2.13;;;;;;;18.75;81.45;96666.66;4985806;28;20445;-94
2021/06/05 00:52:37;;;;;;;5.17;1.97;;;;;;;18.64;82.11;96662.56;4986092;28;20492;-93
2021/06/05 00:55:06;;;;;;;3.53;1.90;;;;;;;18.56;82.16;96651.13;4982309;28;21005;-93
2021/06/05 00:57:32;;;;;;;6.80;1.80;;;;;;;18.34;82.76;96658.59;4981945;28;20501;-93
2021/06/05 00:59:58;;;;;;;3.97;1.73;;;;;;;18.34;83.21;96646.94;4985414;28;20478;-92
2021/06/05 01:02:24;;;;;;;3.23;1.83;;;;;;;18.09;83.94;96641.91;4981006;28;20427;-92
2021/06/05 01:04:51;;;;;;;3.33;2.30;;;;;;;18.14;83.65;96647.06;4980743;28;20492;-93
2021/06/05 01:07:25;;;;;;;2.13;1.80;;;;;;;18.18;83.60;96652.06;4980368;28;20470;-93
2021/06/05 01:09:58;;;;;;;4.83;2.60;;;;;;;18.12;83.79;96640.75;4980731;28;20537;-92
2021/06/05 01:12:31;;;;;;;3.53;1.93;;;;;;;18.04;83.49;96640.94;4980494;28;20431;-93
2021/06/05 01:15:00;;;;;;;4.13;1.60;;;;;;;17.95;83.58;96643.72;4980636;28;20890;-93
2021/06/05 01:17:30;;;;;;;2.70;2.33;;;;;;;17.87;83.88;96646.63;4980825;28;20478;-93
2021/06/05 01:20:02;;;;;;;5.03;1.70;;;;;;;17.91;83.85;96646.19;4981313;28;20493;-93
2021/06/05 01:23:04;;;;;;;2.70;1.67;;;;;;;17.85;83.99;96643.06;4980629;28;20474;-92
2021/06/05 01:26:02;;;;;;;5.13;1.67;;;;;;;17.90;84.09;96645.47;4980856;28;20449;-93
2021/06/05 01:28:33;;;;;;;1.77;1.47;;;;;;;17.80;84.23;96638.63;4980820;28;20473;-94
2021/06/05 01:31:02;;;;;;;2.53;1.80;;;;;;;17.76;84.33;96639.06;4979769;28;20469;-92
2021/06/05 01:33:32;;;;;;;4.67;2.50;;;;;;;17.75;84.33;96634.19;4980261;28;20434;-92
2021/06/05 01:35:59;;;;;;;2.63;1.77;;;;;;;17.70;84.74;96627.03;4980320;28;20489;-93
2021/06/05 01:38:27;;;;;;;2.07;1.60;;;;;;;17.71;84.71;96623.00;4980520;28;20488;-93
2021/06/05 01:40:55;;;;;;;2.57;1.53;;;;;;;17.58;85.17;96616.72;4980185;28;20532;-93
2021/06/05 01:43:25;;;;;;;1.80;1.50;;;;;;;17.62;85.06;96611.56;4980952;28;20541;-93
2021/06/05 01:45:52;;;;;;;2.30;1.57;;;;;;;17.60;85.31;96618.91;4979976;28;20560;-93
2021/06/05 01:48:18;;;;;;;2.10;1.57;;;;;;;17.65;85.03;96621.31;4979298;28;20478;-93
2021/06/05 01:50:46;;;;;;;4.83;1.93;;;;;;;17.64;85.00;96610.97;4979895;28;20946;-91
2021/06/05 01:53:17;;;;;;;2.00;1.50;;;;;;;17.67;84.98;96612.53;4979367;28;20458;-90
2021/06/05 01:55:48;;;;;;;3.07;2.13;;;;;;;17.67;84.55;96613.25;4979435;28;20937;-91
2021/06/05 01:58:18;;;;;;;3.00;1.63;;;;;;;17.66;84.56;96616.56;4982378;28;20502;-90
2021/06/05 02:00:48;;;;;;;6.03;2.23;;;;;;;17.76;83.87;96608.34;4984108;28;20430;-90
2021/06/05 02:03:16;;;;;;;2.90;1.00;;;;;;;17.65;84.25;96601.47;4984341;28;20434;-91
2021/06/05 02:05:43;;;;;;;1.83;1.40;;;;;;;17.58;84.43;96603.09;4982862;28;20474;-91
2021/06/05 02:08:13;;;;;;;2.53;1.40;;;;;;;17.64;84.55;96608.94;4984730;28;20504;-90
2021/06/05 02:10:40;;;;;;;5.13;1.53;;;;;;;17.66;84.50;96594.72;4983843;28;20504;-91
2021/06/05 02:13:10;;;;;;;2.20;1.67;;;;;;;17.62;84.73;96594.47;4983553;28;20437;-93
2021/06/05 02:15:43;;;;;;;1.57;1.40;;;;;;;17.71;84.49;96596.44;4983112;28;20525;-92
2021/06/05 02:18:12;;;;;;;1.60;1.50;;;;;;;17.68;84.42;96594.84;4984165;28;20970;-91
2021/06/05 02:20:43;;;;;;;2.67;1.60;;;;;;;17.76;84.01;96591.97;4984387;28;20464;-92
2021/06/05 02:23:16;;;;;;;2.73;1.33;;;;;;;17.69;84.19;96590.84;4993276;28;20509;-92
2021/06/05 02:25:42;;;;;;;2.83;1.90;;;;;;;17.74;83.71;96591.81;4983601;28;20477;-92
2021/06/05 02:28:09;;;;;;;3.70;1.50;;;;;;;17.62;84.37;96589.00;4984347;28;20441;-92
2021/06/05 02:30:35;;;;;;;2.17;1.53;;;;;;;17.62;84.76;96580.81;4985647;28;20481;-93
2021/06/05 02:33:05;;;;;;;6.00;1.80;;;;;;;17.64;84.65;96591.84;4990347;28;20549;-94
2021/06/05 02:35:34;;;;;;;2.40;1.60;;;;;;;17.67;84.08;96584.53;4986279;28;20449;-94
2021/06/05 02:38:00;;;;;;;3.37;1.50;;;;;;;17.61;84.59;96576.66;4984950;28;20576;-93
2021/06/05 02:40:30;;;;;;;2.30;1.30;;;;;;;17.61;84.54;96582.81;4984047;28;20442;-94
2021/06/05 02:42:58;;;;;;;1.50;1.40;;;;;;;17.57;84.83;96590.03;4984461;28;20446;-94
2021/06/05 02:45:29;;;;;;;1.60;1.50;;;;;;;17.60;84.92;96591.59;4984336;28;20474;-94
2021/06/05 02:47:58;;;;;;;2.30;1.63;;;;;;;17.53;85.30;96587.00;4984919;28;20450;-94
2021/06/05 02:50:31;;;;;;;1.77;1.40;;;;;;;17.50;85.45;96580.00;4985007;28;20441;-94
2021/06/05 02:52:57;;;;;;;1.80;1.70;;;;;;;17.54;85.50;96577.53;4983602;28;20415;-95
2021/06/05 02:55:23;;;;;;;3.47;1.60;;;;;;;17.65;84.75;96576.91;4984889;28;20835;-94
2021/06/05 02:57:50;;;;;;;2.80;1.73;;;;;;;17.62;84.63;96583.53;4990123;28;20471;-91
2021/06/05 03:00:26;;;;;;;2.73;1.37;;;;;;;17.58;84.47;96580.53;5002171;28;20730;-92
2021/06/05 03:02:52;;;;;;;5.83;2.40;;;;;;;17.59;84.32;96581.97;5002217;28;20441;-93
2021/06/05 03:05:19;;;;;;;2.50;1.30;;;;;;;17.56;84.36;96586.59;5002190;28;20424;-94
2021/06/05 03:07:51;;;;;;;4.20;1.53;;;;;;;17.56;84.52;96583.16;4990930;28;20462;-92
2021/06/05 03:10:18;;;;;;;3.03;2.00;;;;;;;17.55;84.22;96578.97;4984861;28;20454;-92
2021/06/05 03:12:46;;;;;;;2.10;1.57;;;;;;;17.53;84.21;96587.72;4983816;28;20484;-92
2021/06/05 03:15:14;;;;;;;2.73;1.53;;;;;;;17.55;83.95;96585.16;4984820;28;20470;-92
2021/06/05 03:17:41;;;;;;;2.43;1.70;;;;;;;17.64;82.95;96586.41;4984040;28;20501;-92
2021/06/05 03:20:09;;;;;;;1.53;1.30;;;;;;;17.60;83.16;96580.69;4983218;28;20426;-91
2021/06/05 03:22:36;;;;;;;2.17;1.40;;;;;;;17.63;83.52;96582.97;4983581;28;20438;-91
2021/06/05 03:25:04;;;;;;;2.40;1.47;;;;;;;17.73;83.29;96591.09;4983098;28;20481;-91
2021/06/05 03:27:31;;;;;;;1.90;1.60;;;;;;;17.73;82.74;96585.63;4984514;28;20478;-93
2021/06/05 03:29:57;;;;;;;4.07;1.83;;;;;;;17.80;82.69;96594.94;4984414;28;20469;-93
2021/06/05 03:32:23;;;;;;;5.00;1.53;;;;;;;17.91;82.06;96586.13;4984764;28;20465;-93
2021/06/05 03:34:49;;;;;;;1.63;1.40;;;;;;;18.00;81.80;96591.53;4983981;28;20490;-93
2021/06/05 03:37:16;;;;;;;2.40;1.03;;;;;;;18.01;81.74;96587.47;4983694;28;20572;-93
2021/06/05 03:39:42;;;;;;;2.00;1.20;;;;;;;17.99;82.04;96581.88;4989683;28;20517;-93
2021/06/05 03:42:11;;;;;;;3.10;1.30;;;;;;;18.08;82.30;96594.75;4984598;28;20525;-93
2021/06/05 03:44:37;;;;;;;1.43;1.10;;;;;;;18.44;81.14;96587.47;4984878;28;20505;-93
2021/06/05 03:47:04;;;;;;;1.70;1.60;;;;;;;18.66;79.50;96586.16;4984186;28;20620;-94
2021/06/05 03:49:30;;;;;;;2.53;1.73;;;;;;;18.64;79.67;96594.22;4984730;28;20532;-94
2021/06/05 03:51:56;;;;;;;3.90;2.10;;;;;;;18.68;79.47;96597.22;4985251;28;20434;-94
2021/06/05 03:54:23;;;;;;;2.90;1.70;;;;;;;18.64;79.79;96594.94;4983676;28;20470;-93
2021/06/05 03:56:49;;;;;;;1.70;1.60;;;;;;;18.72;79.63;96597.47;4983550;28;20557;-92
2021/06/05 03:59:17;;;;;;;4.33;1.77;;;;;;;18.61;79.64;96592.66;4983407;28;20578;-90
2021/06/05 04:01:43;;;;;;;3.60;1.40;;;;;;;18.70;80.14;96600.78;4982383;28;20469;-91
2021/06/05 04:04:10;;;;;;;1.53;1.30;;;;;;;19.08;79.14;96598.97;4983436;28;20459;-91
2021/06/05 04:06:36;;;;;;;1.80;1.40;;;;;;;19.33;77.24;96607.34;4982905;28;20513;-91
2021/06/05 04:09:04;;;;;;;1.57;1.33;;;;;;;19.41;76.50;96605.13;4983146;28;20467;-91
2021/06/05 04:11:33;;;;;;;2.10;1.80;;;;;;;19.52;76.64;96609.16;4982914;28;20465;-92
2021/06/05 04:14:01;;;;;;;2.90;1.60;;;;;;;19.86;75.79;96610.50;4982465;28;20450;-92
2021/06/05 04:16:30;;;;;;;5.33;1.40;;;;;;;20.24;74.16;96604.44;4982584;28;20461;-91
2021/06/05 04:18:56;;;;;;;2.03;1.47;;;;;;;20.61;72.20;96605.19;4982515;28;20512;-91
2021/06/05 04:21:24;;;;;;;4.10;2.00;;;;;;;20.63;71.64;96608.06;4986676;28;20434;-94
2021/06/05 04:23:51;;;;;;;3.50;1.80;;;;;;;20.31;72.76;96609.00;4996580;28;20477;-93
2021/06/05 04:26:19;;;;;;;1.60;1.50;;;;;;;19.97;74.08;96604.28;4998126;28;20434;-91
2021/06/05 04:28:46;;;;;;;2.27;1.53;;;;;;;19.76;75.06;96605.13;4997653;28;20450;-92
2021/06/05 04:31:13;;;;;;;2.40;1.40;;;;;;;19.68;75.78;96607.38;4997610;28;20445;-92
2021/06/05 04:33:40;;;;;;;1.40;1.30;;;;;;;19.63;75.77;96605.72;4991207;28;20442;-92
2021/06/05 04:36:09;;;;;;;2.27;1.70;;;;;;;19.60;76.14;96609.66;4982561;28;20557;-93
2021/06/05 04:38:37;;;;;;;2.10;1.37;;;;;;;19.35;77.02;96609.50;4983208;28;20517;-92
2021/06/05 04:41:05;;;;;;;5.60;2.00;;;;;;;19.16;77.41;96610.44;4983281;28;20465;-93
2021/06/05 04:43:31;;;;;;;3.03;1.40;;;;;;;19.02;78.81;96607.53;4983542;28;20480;-92
2021/06/05 04:45:57;;;;;;;2.80;1.60;;;;;;;19.07;78.65;96601.03;4986122;28;20520;-93
2021/06/05 04:48:24;;;;;;;3.13;1.50;;;;;;;19.00;78.81;96601.94;4986628;28;20534;-93
2021/06/05 04:50:53;;;;;;;2.73;1.60;;;;;;;18.90;79.66;96601.31;4982717;28;20445;-93
2021/06/05 04:53:19;;;;;;;3.70;1.50;;;;;;;18.83;79.79;96599.50;4982070;28;20487;-93
2021/06/05 04:55:45;;;;;;;1.60;1.30;;;;;;;18.79;79.80;96595.81;4982485;28;20485;-93
2021/06/05 04:58:12;;;;;;;5.07;1.83;;;;;;;18.84;79.45;96597.50;4982900;28;20548;-92
2021/06/05 05:00:40;;;;;;;2.60;1.70;;;;;;;18.74;79.85;96597.59;4982389;28;20443;-92
2021/06/05 05:03:09;;;;;;;3.10;1.70;;;;;;;18.72;80.12;96605.66;4997414;28;20462;-94
2021/06/05 05:05:36;;;;;;;1.80;1.30;;;;;;;18.70;80.10;96600.09;4999975;28;20454;-93
2021/06/05 05:08:04;;;;;;;3.33;1.60;;;;;;;18.65;80.20;96609.31;4999842;28;20477;-93
2021/06/05 05:10:34;;;;;;;5.70;1.93;;;;;;;18.60;81.60;96602.91;4982615;28;20553;-93
2021/06/05 05:13:02;;;;;;;2.13;1.93;;;;;;;18.56;82.40;96607.38;4982366;28;20481;-93
2021/06/05 05:15:29;;;;;;;2.00;1.60;;;;;;;18.47;83.21;96605.41;4982039;28;20485;-92
2021/06/05 05:17:55;;;;;;;2.60;2.00;;;;;;;18.49;83.47;96611.75;4983576;28;20578;-92
2021/06/05 05:20:25;;;;;;;2.83;1.60;;;;;;;18.52;83.31;96613.31;4983953;28;20513;-93
2021/06/05 05:22:51;;;;;;;2.17;1.97;;;;;;;18.65;82.96;96612.06;4983084;28;20409;-94
2021/06/05 05:25:19;;;;;;;2.57;1.67;;;;;;;18.68;82.88;96616.34;4982425;28;20836;-94
2021/06/05 05:27:45;;;;;;;6.57;1.90;;;;;;;18.78;82.33;96610.78;4984550;28;20522;-95
2021/06/05 05:30:15;;;;;;;8.10;1.90;;;;;;;18.76;82.17;96618.88;4997069;28;20437;-95
2021/06/05 05:32:41;;;;;;;4.37;2.37;;;;;;;18.74;82.16;96619.47;4996449;28;20453;-95
2021/06/05 05:35:08;;;;;;;4.57;1.70;;;;;;;18.80;82.32;96619.13;4990893;28;20478;-93
2021/06/05 05:37:35;;;;;;;2.67;2.23;;;;;;;18.84;82.32;96620.09;4985996;28;20478;-91
2021/06/05 05:40:01;;;;;;;2.73;1.83;;;;;;;18.82;82.80;96619.97;4982761;28;20474;-92
2021/06/05 05:42:28;;;;;;;2.00;1.77;;;;;;;18.84;82.57;96619.38;4998903;28;20453;-91
2021/06/05 05:44:55;;;;;;;5.57;1.57;;;;;;;18.90;82.81;96627.94;4997950;28;20481;-91
2021/06/05 05:47:21;;;;;;;2.70;1.83;;;;;;;18.94;81.98;96628.94;4999610;28;20433;-95
2021/06/05 05:49:47;;;;;;;1.83;1.60;;;;;;;18.95;82.25;96632.38;4999612;28;20485;-94
2021/06/05 05:52:13;;;;;;;5.97;2.90;;;;;;;19.00;82.02;96637.50;4999519;28;20461;-93
2021/06/05 05:54:40;;;;;;;5.57;2.43;;;;;;;19.18;81.37;96641.34;4999552;28;20473;-93
2021/06/05 05:57:07;;;;;;;3.20;2.20;;;;;;;19.23;80.63;96653.28;4990621;28;20482;-93
2021/06/05 05:59:34;;;;;;;6.43;2.40;;;;;;;19.43;80.42;96648.31;4984323;28;20446;-92
2021/06/05 06:02:01;;;;;;;3.23;1.90;;;;;;;19.59;80.02;96641.09;4984262;28;20505;-93
2021/06/05 06:04:27;;;;;;;4.87;2.43;;;;;;;19.76;78.43;96643.47;4990225;28;20446;-93
2021/06/05 06:06:53;;;;;;;3.90;2.07;;;;;;;19.81;78.73;96649.91;4998301;28;20445;-92
2021/06/05 06:09:19;;;;;;;2.67;2.00;;;;;;;20.00;78.06;96638.69;4998400;28;20447;-94
2021/06/05 06:11:46;;;;;;;2.93;1.77;;;;;;;20.36;76.37;96642.84;4998639;28;20422;-93
2021/06/05 06:14:13;;;;;;;3.37;1.90;;;;;;;20.59;75.36;96648.97;4983288;28;20461;-93
2021/06/05 06:16:40;;;;;;;3.80;1.93;;;;;;;20.73;74.31;96646.31;4985137;28;20587;-93
2021/06/05 06:19:07;;;;;;;3.23;2.33;;;;;;;20.89;73.67;96652.69;4983122;28;20446;-93
2021/06/05 06:21:34;;;;;;;3.20;1.80;;;;;;;21.09;72.96;96658.56;4981751;28;20466;-92
2021/06/05 06:24:01;;;;;;;2.50;1.80;;;;;;;21.17;72.97;96654.25;4982560;28;20545;-93
2021/06/05 06:26:30;;;;;;;7.20;2.47;;;;;;;21.53;71.16;96657.47;4983021;28;20510;-93
2021/06/05 06:28:58;;;;;;;3.87;2.40;;;;;;;21.49;71.43;96668.25;4985658;28;20461;-93
2021/06/05 06:31:25;;;;;;;4.63;3.07;;;;;;;21.64;71.10;96662.19;4982263;28;20531;-93
2021/06/05 06:33:53;;;;;;;4.70;2.43;;;;;;;21.72;71.05;96665.34;4984985;28;20533;-94
2021/06/05 06:36:21;;;;;;;4.07;2.43;;;;;;;21.91;71.17;96664.97;4983511;28;20970;-93
2021/06/05 06:38:49;;;;;;;2.83;2.37;;;;;;;22.09;70.62;96660.41;4984372;28;20494;-94
2021/06/05 06:41:19;;;;;;;5.10;2.70;;;;;;;22.12;70.72;96663.94;4982155;28;20862;-93
2021/06/05 06:43:46;;;;;;;3.27;2.07;;;;;;;22.33;69.63;96671.91;4984999;28;20434;-94
2021/06/05 06:46:14;;;;;;;3.10;2.40;;;;;;;22.80;68.20;96669.41;4988169;28;20445;-93
2021/06/05 06:48:41;;;;;;;2.80;2.43;;;;;;;23.52;66.45;96671.34;4987363;28;20457;-93
2021/06/05 06:51:09;;;;;;;6.10;2.30;;;;;;;24.17;63.97;96672.16;4993539;28;20445;-93
2021/06/05 06:53:36;;;;;;;7.30;1.77;;;;;;;24.83;61.61;96682.50;4995895;28;20782;-94
2021/06/05 06:56:03;;;;;;;2.30;1.63;;;;;;;25.29;58.79;96689.13;4984456;28;20457;-91
2021/06/05 06:58:30;;;;;;;3.47;1.50;;;;;;;25.69;58.11;96695.47;4987101;28;20860;-93
2021/06/05 07:00:57;;;;;;;2.10;1.60;;;;;;;25.50;58.25;96692.03;4986099;28;20462;-91
2021/06/05 07:03:25;;;;;;;2.20;1.50;;;;;;;25.83;56.86;96696.72;4987480;28;20505;-92
2021/06/05 07:05:51;;;;;;;1.87;1.67;;;;;;;26.18;56.37;96697.94;4989361;28;20528;-92
2021/06/05 07:08:23;;;;;;;1.97;1.50;;;;;;;26.02;55.96;96703.59;4990531;28;20817;-94
2021/06/05 07:10:51;;;;;;;3.00;1.97;;;;;;;25.74;56.21;96702.56;4998925;28;20438;-95
2021/06/05 07:13:18;;;;;;;3.83;1.97;;;;;;;25.53;56.48;96701.09;5000800;28;20508;-94
2021/06/05 07:15:44;;;;;;;1.93;1.30;;;;;;;25.04;58.04;96706.81;4992985;28;20481;-94
2021/06/05 07:18:12;;;;;;;4.53;2.00;;;;;;;24.75;59.22;96702.16;4987684;28;20541;-94
2021/06/05 07:20:40;;;;;;;7.20;1.57;;;;;;;24.44;60.15;96699.50;4990847;28;20485;-94
2021/06/05 07:23:07;;;;;;;2.30;1.40;;;;;;;24.41;60.72;96690.44;5000638;28;20485;-95
2021/06/05 07:25:35;;;;;;;3.07;1.30;;;;;;;24.33;60.81;96695.63;4992060;28;20564;-93
2021/06/05 07:28:11;;;;;;;1.97;1.40;;;;;;;24.81;59.58;96698.97;4988386;28;20462;-93
2021/06/05 07:30:37;;;;;;;2.40;1.50;;;;;;;25.43;57.68;96698.66;4987124;28;20449;-94
2021/06/05 07:33:04;;;;;;;3.63;1.80;;;;;;;26.26;55.63;96709.28;4986255;28;20466;-92
2021/06/05 07:35:32;;;;;;;4.27;1.83;;;;;;;26.26;55.41;96714.81;4987275;28;20508;-92
2021/06/05 07:37:58;;;;;;;3.23;1.30;;;;;;;25.90;54.42;96711.47;4987517;28;20485;-92
2021/06/05 07:43:46;;;;;;;2.20;1.17;;;;;;;25.19;56.50;96711.53;4986895;28;20939;-92
2021/06/05 07:46:12;;;;;;;6.30;2.30;;;;;;;24.84;56.74;96711.53;4985794;28;20523;-93
2021/06/05 07:48:39;;;;;;;7.37;2.23;;;;;;;24.70;58.21;96717.16;4988923;28;20513;-93
2021/06/05 07:51:07;;;;;;;2.83;2.00;;;;;;;24.29;58.67;96714.75;4992713;28;20489;-93
2021/06/05 07:53:33;;;;;;;3.77;1.43;;;;;;;24.09;59.63;96711.09;4989479;28;20446;-93
2021/06/05 07:55:59;;;;;;;6.00;1.90;;;;;;;24.00;58.74;96712.06;4987502;28;20477;-93
2021/06/05 07:58:26;;;;;;;3.80;1.33;;;;;;;24.02;59.49;96708.72;4988786;28;20509;-94
2021/06/05 08:00:53;;;;;;;2.60;2.40;;;;;;;23.73;59.73;96715.03;4989346;28;20460;-94
2021/06/05 08:03:20;;;;;;;9.03;2.33;;;;;;;23.61;60.52;96711.72;4986656;28;20434;-93
2021/06/05 08:05:46;;;;;;;3.13;1.67;;;;;;;23.11;60.81;96708.03;4995681;28;20466;-95
2021/06/05 08:08:18;;;;;;;2.40;1.30;;;;;;;22.85;62.37;96717.78;4997012;28;20540;-95
2021/06/05 08:10:45;;;;;;;2.27;1.80;;;;;;;22.98;63.17;96708.78;4996586;28;20474;-94
2021/06/05 08:13:12;;;;;;;3.70;1.50;;;;;;;23.00;63.37;96708.88;4996015;28;20458;-94
2021/06/05 08:15:41;;;;;;;2.40;2.20;;;;;;;23.04;62.12;96714.59;4996732;28;20461;-94
2021/06/05 08:18:09;;;;;;;3.90;1.53;;;;;;;23.18;63.33;96703.53;4995920;28;20485;-93
2021/06/05 08:20:38;;;;;;;2.97;1.60;;;;;;;23.18;65.36;96706.97;4996913;28;20465;-95
2021/06/05 08:23:07;;;;;;;5.50;1.83;;;;;;;23.04;65.64;96708.38;4994440;28;20465;-94
2021/06/05 08:25:33;;;;;;;5.60;2.77;;;;;;;22.97;66.06;96709.41;4995743;28;20497;-94
2021/06/05 08:27:59;;;;;;;3.30;1.87;;;;;;;22.99;66.81;96717.78;4993965;28;20536;-94
2021/06/05 08:30:29;;;;;;;5.43;1.67;;;;;;;22.92;67.02;96720.22;4996038;28;20453;-94
2021/06/05 08:32:55;;;;;;;3.13;1.73;;;;;;;22.79;67.49;96726.47;4996663;28;20453;-95
2021/06/05 08:35:23;;;;;;;6.00;1.87;;;;;;;22.73;68.31;96709.66;4996060;28;20470;-95
2021/06/05 08:40:57;;;;;;;2.63;2.43;;;;;;;22.68;67.97;96716.28;4986270;28;20543;-90
2021/06/05 08:43:28;;;;;;;2.70;2.10;;;;;;;22.80;67.52;96719.66;4984370;28;20445;-91
2021/06/05 08:46:01;;;;;;;2.67;1.67;;;;;;;22.75;67.54;96718.03;4975449;28;20502;-93
2021/06/05 08:53:38;;;;;;;4.20;2.13;;;;;;;23.15;66.67;96718.53;4997254;28;20493;-92
2021/06/05 08:56:09;;;;;;;4.03;2.07;;;;;;;23.19;66.34;96713.19;4985851;28;20489;-93
2021/06/05 08:58:38;;;;;;;2.10;1.80;;;;;;;23.24;65.85;96709.31;4988224;28;20877;-93
2021/06/05 09:01:11;;;;;;;4.13;3.73;;;;;;;23.26;66.46;96714.91;4983641;28;20464;-93
2021/06/05 09:03:39;;;;;;;3.93;1.77;;;;;;;23.27;65.51;96716.34;4983846;28;20501;-92
2021/06/05 09:06:10;;;;;;;3.10;2.00;;;;;;;23.51;64.88;96720.25;4981720;28;20490;-91
2021/06/05 09:08:38;;;;;;;4.03;2.17;;;;;;;23.64;64.63;96716.00;4985292;28;20469;-92
2021/06/05 09:11:05;;;;;;;2.63;1.53;;;;;;;23.68;64.18;96716.88;4984457;28;20453;-93
2021/06/05 09:13:33;;;;;;;2.00;1.73;;;;;;;23.79;64.27;96715.28;4985125;28;20514;-93
2021/06/05 09:16:23;;;;;;;3.57;1.77;;;;;;;23.76;63.55;96714.50;4983257;28;20548;-92
2021/06/05 09:18:52;;;;;;;2.10;1.60;;;;;;;23.77;64.21;96717.97;4980652;28;20525;-91
2021/06/05 09:21:25;;;;;;;5.73;2.27;;;;;;;23.86;63.09;96720.47;4987179;28;20419;-93
2021/06/05 09:23:53;;;;;;;2.20;1.50;;;;;;;23.72;63.90;96717.06;4983566;28;20483;-93
2021/06/05 09:26:23;;;;;;;3.10;1.90;;;;;;;23.74;63.97;96725.44;4990844;28;20538;-93
2021/06/05 09:28:59;;;;;;;2.20;1.60;;;;;;;23.67;64.40;96714.75;4980106;28;20690;-93
2021/06/05 09:31:26;;;;;;;2.70;1.53;;;;;;;23.68;65.15;96710.66;4971715;29;20458;-94
2021/06/05 09:33:57;;;;;;;4.27;2.13;;;;;;;23.61;65.08;96717.22;4971363;28;20458;-94
2021/06/05 09:36:33;;;;;;;1.93;1.73;;;;;;;23.52;65.16;96727.19;4975327;28;20450;-94
2021/06/05 09:39:04;;;;;;;3.83;1.50;;;;;;;23.51;65.31;96725.03;4969789;29;20565;-94
2021/06/05 09:41:40;;;;;;;2.10;1.60;;;;;;;23.51;63.70;96723.00;4967722;29;20495;-94
2021/06/05 09:44:24;;;;;;;2.10;1.50;;;;;;;23.40;63.69;96721.81;4968417;28;20534;-93
2021/06/05 09:46:58;;;;;;;5.93;1.60;;;;;;;23.41;64.08;96719.78;4969125;29;20431;-94
2021/06/05 09:49:31;;;;;;;3.73;1.77;;;;;;;23.47;64.50;96722.81;4969013;29;20451;-94
2021/06/05 09:52:08;;;;;;;2.37;1.40;;;;;;;23.72;63.73;96724.63;4968744;29;20494;-92
2021/06/05 09:54:39;;;;;;;1.63;1.53;;;;;;;23.61;63.63;96720.00;4970816;28;20494;-92
2021/06/05 10:05:03;;;;;;;3.00;1.50;;;;;;;23.73;63.06;96717.78;4908307;29;20440;-91
2021/06/05 10:14:29;;;;;;;1.50;1.30;;;;;;;23.66;64.15;96727.81;4879265;29;20535;-90
2021/06/05 10:17:25;;;;;;;1.97;1.20;;;;;;;23.59;65.12;96730.94;4909218;29;20454;-90
2021/06/05 10:19:59;;;;;;;1.77;1.30;;;;;;;23.44;66.50;96733.03;4967219;29;20453;-92
2021/06/05 10:22:27;;;;;;;2.57;1.40;;;;;;;23.34;67.13;96727.00;4968587;29;20454;-91
2021/06/05 10:24:58;;;;;;;11.20;1.70;;;;;;;23.24;67.52;96721.03;4974238;28;20470;-91
2021/06/05 10:27:28;;;;;;;2.77;1.63;;;;;;;23.05;67.41;96720.81;4986124;28;20488;-93
2021/06/05 10:29:59;;;;;;;4.50;2.00;;;;;;;22.91;68.13;96727.06;4987657;28;20442;-89
2021/06/05 10:32:32;;;;;;;1.63;1.53;;;;;;;22.95;68.46;96732.06;4988107;28;20445;-90
2021/06/05 10:35:04;;;;;;;4.07;1.87;;;;;;;22.89;68.98;96715.25;4988114;28;20496;-90
2021/06/05 10:37:35;;;;;;;3.30;1.60;;;;;;;22.81;70.81;96723.81;4987663;28;20474;-92
2021/06/05 10:40:05;;;;;;;3.70;1.83;;;;;;;22.78;71.50;96716.06;4987720;28;20443;-90
2021/06/05 10:42:38;;;;;;;2.33;1.57;;;;;;;22.78;72.24;96716.06;4971419;29;20485;-90
2021/06/05 10:45:10;;;;;;;3.13;1.90;;;;;;;22.68;72.81;96721.09;4972229;28;20474;-91
2021/06/05 10:47:45;;;;;;;2.43;1.90;;;;;;;22.73;73.34;96719.97;4973235;29;20422;-91
2021/06/05 10:50:15;;;;;;;2.67;2.00;;;;;;;22.66;74.96;96723.75;4966749;29;20461;-91
2021/06/05 10:52:47;;;;;;;5.00;2.30;;;;;;;22.71;76.30;96717.13;4971059;29;20554;-90
2021/06/05 10:55:17;;;;;;;3.07;2.47;;;;;;;22.85;75.55;96717.78;4969637;28;20481;-90
2021/06/05 10:57:48;;;;;;;2.77;2.20;;;;;;;22.94;74.78;96717.56;4964543;29;20599;-89
2021/06/05 11:00:43;;;;;;;1.97;1.57;;;;;;;22.81;75.99;96707.31;4964742;29;21012;-90
2021/06/05 11:03:31;;;;;;;3.90;1.87;;;;;;;22.84;76.02;96716.38;4964605;29;20490;-90
2021/06/05 11:06:01;;;;;;;2.07;1.87;;;;;;;23.04;74.30;96711.13;4976140;28;20473;-91
2021/06/05 11:09:05;;;;;;;2.57;2.17;;;;;;;23.20;73.25;96709.13;4981049;28;20443;-93
2021/06/05 11:11:50;;;;;;;3.23;1.93;;;;;;;23.30;72.50;96709.59;4979280;28;20453;-90
2021/06/05 11:14:49;;;;;;;2.90;2.27;;;;;;;23.39;72.51;96712.13;4964854;28;20478;-89
2021/06/05 11:17:37;;;;;;;2.60;1.80;;;;;;;23.43;72.32;96712.31;4963216;29;20523;-90
2021/06/05 11:20:33;;;;;;;5.90;1.97;;;;;;;23.48;70.85;96707.72;4964867;29;20442;-90
2021/06/05 11:23:24;;;;;;;2.33;2.03;;;;;;;23.39;71.94;96708.63;4963836;29;20435;-90
2021/06/05 11:25:52;;;;;;;3.70;2.03;;;;;;;23.56;71.49;96707.34;4958625;28;20485;-89
2021/06/05 11:28:48;;;;;;;7.30;1.87;;;;;;;23.55;69.91;96697.66;4962619;29;20457;-90
2021/06/05 11:31:54;;;;;;;2.50;1.40;;;;;;;23.79;67.91;96696.00;4962546;29;20469;-90
2021/06/05 11:34:56;;;;;;;3.70;1.97;;;;;;;23.96;68.58;96695.38;4965596;28;20552;-89
2021/06/05 11:37:55;;;;;;;2.53;2.30;;;;;;;23.99;67.31;96700.34;4962132;29;20434;-89
2021/06/05 11:41:04;;;;;;;1.70;1.60;;;;;;;24.21;64.90;96703.38;4902847;29;20464;-90
2021/06/05 11:43:51;;;;;;;2.07;1.50;;;;;;;24.45;62.65;96690.59;4980001;28;20431;-90
2021/06/05 11:46:50;;;;;;;3.23;2.10;;;;;;;24.50;62.59;96694.94;4979139;28;20442;-91
2021/06/05 11:49:47;;;;;;;1.97;1.70;;;;;;;24.40;61.42;96689.00;4964649;29;20454;-92
2021/06/05 11:52:36;;;;;;;2.50;1.67;;;;;;;24.38;61.50;96686.16;4949426;29;20477;-92
2021/06/05 11:55:27;;;;;;;1.70;1.33;;;;;;;24.31;60.58;96690.00;4967717;28;20473;-91
2021/06/05 11:58:09;;;;;;;2.07;1.73;;;;;;;24.27;61.07;96687.09;4951450;29;20482;-91
2021/06/05 12:00:39;;;;;;;11.27;2.37;;;;;;;24.38;62.41;96688.22;4971527;29;20525;-92
2021/06/05 12:03:08;;;;;;;2.00;1.37;;;;;;;24.32;62.15;96685.91;4968328;28;20502;-91
2021/06/05 12:05:37;;;;;;;2.63;2.10;;;;;;;24.20;62.39;96682.66;4965325;28;20459;-91
2021/06/05 12:08:19;;;;;;;3.20;1.67;;;;;;;24.20;63.03;96679.19;4965520;29;20441;-91
2021/06/05 12:10:47;;;;;;;4.07;1.90;;;;;;;24.26;63.20;96682.19;4964616;29;20525;-91
2021/06/05 12:13:22;;;;;;;3.00;1.50;;;;;;;24.21;64.06;96666.81;4965314;29;20843;-92
2021/06/05 12:15:50;;;;;;;2.60;1.73;;;;;;;24.11;64.99;96669.84;4973684;28;20473;-92